UAL2633 KPHL-KDEN
Flight info
| Callsign | UAL2633 |
|---|---|
| Flight time | N/A |
| Altitude | 34000 |
| Route | PTW SARAA RAV PSB J60 DJB CPONE JOT J60 IOW DSM/N0460F360 OBH BRWRY LAWGR4 |
| Aircraft | B738/M-SDE2E3FGHIRWXY/LB1 |
Departure
| Time | 2026-05-07 20:44 |
|---|---|
| Airport | Philadelphia International Airport (KPHL) |
Arrival
| Time | N/A |
|---|---|
| Airport | Denver International Airport (KDEN) |
| Time | Latitude | Longitude | Altitude | Speed | Heading |
|---|---|---|---|---|---|
| 2026-05-07 20:15 | 39.87666 | -75.23897 | 28 ft | 0 kts | 245° |
| 2026-05-07 20:33 | 39.87667 | -75.23894 | 30 ft | 2 kts | 245° |
| 2026-05-07 20:33 | 39.87674 | -75.23874 | 24 ft | 2 kts | 245° |
| 2026-05-07 20:33 | 39.87681 | -75.23855 | 30 ft | 2 kts | 245° |
| 2026-05-07 20:34 | 39.87690 | -75.23837 | 30 ft | 2 kts | 198° |
| 2026-05-07 20:34 | 39.87706 | -75.23839 | 28 ft | 2 kts | 141° |
| 2026-05-07 20:34 | 39.87716 | -75.23855 | 29 ft | 2 kts | 122° |
| 2026-05-07 20:34 | 39.87719 | -75.23861 | 30 ft | 0 kts | 123° |
| 2026-05-07 20:38 | 39.87714 | -75.23852 | 29 ft | 3 kts | 124° |
| 2026-05-07 20:38 | 39.87697 | -75.23820 | 26 ft | 0 kts | 126° |
| 2026-05-07 20:38 | 39.87695 | -75.23817 | 24 ft | 2 kts | 126° |
| 2026-05-07 20:39 | 39.87670 | -75.23768 | 26 ft | 10 kts | 120° |
| 2026-05-07 20:39 | 39.87627 | -75.23673 | 24 ft | 9 kts | 120° |
| 2026-05-07 20:39 | 39.87623 | -75.23663 | 24 ft | 0 kts | 123° |
| 2026-05-07 20:39 | 39.87612 | -75.23644 | 24 ft | 6 kts | 127° |
| 2026-05-07 20:40 | 39.87571 | -75.23609 | 28 ft | 8 kts | 167° |
| 2026-05-07 20:40 | 39.87509 | -75.23632 | 28 ft | 13 kts | 217° |
| 2026-05-07 20:40 | 39.87438 | -75.23726 | 28 ft | 15 kts | 229° |
| 2026-05-07 20:40 | 39.87400 | -75.23843 | 26 ft | 13 kts | 242° |
| 2026-05-07 20:41 | 39.87327 | -75.23848 | 26 ft | 13 kts | 134° |
| 2026-05-07 20:41 | 39.87246 | -75.23804 | 25 ft | 13 kts | 167° |
| 2026-05-07 20:41 | 39.87145 | -75.23772 | 26 ft | 16 kts | 164° |
| 2026-05-07 20:41 | 39.87086 | -75.23751 | 28 ft | 6 kts | 165° |
| 2026-05-07 20:42 | 39.87042 | -75.23735 | 24 ft | 8 kts | 165° |
| 2026-05-07 20:42 | 39.86980 | -75.23707 | 29 ft | 11 kts | 143° |
| 2026-05-07 20:42 | 39.86978 | -75.23600 | 26 ft | 14 kts | 74° |
| 2026-05-07 20:42 | 39.87003 | -75.23473 | 27 ft | 12 kts | 79° |
| 2026-05-07 20:43 | 39.86964 | -75.23410 | 26 ft | 8 kts | 165° |
| 2026-05-07 20:43 | 39.86914 | -75.23417 | 24 ft | 8 kts | 217° |
| 2026-05-07 20:43 | 39.86881 | -75.23517 | 26 ft | 16 kts | 258° |
| 2026-05-07 20:43 | 39.86828 | -75.23790 | 24 ft | 61 kts | 255° |
| 2026-05-07 20:44 | 39.86665 | -75.24605 | 26 ft | 123 kts | 253° |
| 2026-05-07 20:44 | 39.86395 | -75.25908 | 46 ft | 172 kts | 255° |
| 2026-05-07 20:44 | 39.86077 | -75.27472 | 645 ft | 175 kts | 258° |
| 2026-05-07 20:44 | 39.85768 | -75.29025 | 1369 ft | 183 kts | 254° |
| 2026-05-07 20:45 | 39.85359 | -75.30683 | 1607 ft | 206 kts | 253° |
| 2026-05-07 20:45 | 39.84894 | -75.32530 | 1782 ft | 224 kts | 256° |
| 2026-05-07 20:45 | 39.84956 | -75.34530 | 2166 ft | 227 kts | 296° |
| 2026-05-07 20:45 | 39.85906 | -75.36195 | 2536 ft | 238 kts | 311° |
| 2026-05-07 20:46 | 39.87035 | -75.37871 | 2839 ft | 253 kts | 311° |
| 2026-05-07 20:46 | 39.88201 | -75.39634 | 3524 ft | 259 kts | 310° |
| 2026-05-07 20:46 | 39.89342 | -75.41425 | 4419 ft | 256 kts | 309° |
| 2026-05-07 20:46 | 39.90460 | -75.43238 | 5121 ft | 258 kts | 308° |
| 2026-05-07 20:47 | 39.91570 | -75.45083 | 5812 ft | 260 kts | 308° |
| 2026-05-07 20:47 | 39.92678 | -75.46957 | 6468 ft | 262 kts | 307° |
| 2026-05-07 20:47 | 39.93777 | -75.48843 | 7194 ft | 260 kts | 306° |
| 2026-05-07 20:47 | 39.94859 | -75.50717 | 7965 ft | 257 kts | 304° |
| 2026-05-07 20:48 | 39.95925 | -75.52578 | 8700 ft | 256 kts | 303° |
| 2026-05-07 20:48 | 39.96982 | -75.54433 | 9459 ft | 254 kts | 302° |
| 2026-05-07 20:48 | 39.98026 | -75.56274 | 10163 ft | 253 kts | 301° |
| 2026-05-07 20:48 | 39.99096 | -75.58174 | 10433 ft | 268 kts | 301° |
| 2026-05-07 20:49 | 40.00236 | -75.60211 | 10581 ft | 287 kts | 301° |
| 2026-05-07 20:49 | 40.01453 | -75.62387 | 10767 ft | 307 kts | 301° |
| 2026-05-07 20:49 | 40.02748 | -75.64703 | 10904 ft | 325 kts | 301° |
| 2026-05-07 20:49 | 40.04098 | -75.67116 | 11029 ft | 342 kts | 301° |
| 2026-05-07 20:50 | 40.05548 | -75.69706 | 11249 ft | 354 kts | 301° |
| 2026-05-07 20:50 | 40.07015 | -75.72331 | 11675 ft | 360 kts | 301° |
| 2026-05-07 20:50 | 40.08493 | -75.74966 | 12315 ft | 360 kts | 300° |
| 2026-05-07 20:50 | 40.09958 | -75.77577 | 12847 ft | 363 kts | 300° |
| 2026-05-07 20:51 | 40.11477 | -75.80294 | 13399 ft | 367 kts | 299° |
| 2026-05-07 20:51 | 40.12969 | -75.82968 | 13919 ft | 370 kts | 299° |
| 2026-05-07 20:51 | 40.14489 | -75.85695 | 14445 ft | 373 kts | 299° |
| 2026-05-07 20:51 | 40.16018 | -75.88441 | 15006 ft | 374 kts | 299° |
| 2026-05-07 20:52 | 40.17516 | -75.91135 | 15563 ft | 376 kts | 298° |
| 2026-05-07 20:52 | 40.19024 | -75.93848 | 16071 ft | 379 kts | 298° |
| 2026-05-07 20:52 | 40.20575 | -75.96648 | 16500 ft | 383 kts | 298° |
| 2026-05-07 20:52 | 40.22141 | -75.99472 | 17106 ft | 383 kts | 298° |
| 2026-05-07 20:53 | 40.23714 | -76.02314 | 17603 ft | 387 kts | 298° |
| 2026-05-07 20:53 | 40.25300 | -76.05180 | 18114 ft | 390 kts | 298° |
| 2026-05-07 20:53 | 40.26896 | -76.08068 | 18557 ft | 393 kts | 298° |
| 2026-05-07 20:53 | 40.28501 | -76.10972 | 19036 ft | 394 kts | 298° |
| 2026-05-07 20:54 | 40.30107 | -76.13882 | 19535 ft | 395 kts | 298° |
| 2026-05-07 20:54 | 40.31718 | -76.16805 | 20006 ft | 396 kts | 298° |
| 2026-05-07 20:54 | 40.33331 | -76.19733 | 20389 ft | 399 kts | 298° |
| 2026-05-07 20:54 | 40.34965 | -76.22692 | 20841 ft | 400 kts | 298° |
| 2026-05-07 20:55 | 40.36597 | -76.25661 | 21220 ft | 402 kts | 298° |
| 2026-05-07 20:55 | 40.38235 | -76.28648 | 21610 ft | 404 kts | 298° |
| 2026-05-07 20:55 | 40.39878 | -76.31646 | 21990 ft | 406 kts | 298° |
| 2026-05-07 20:55 | 40.41530 | -76.34663 | 22380 ft | 408 kts | 297° |
| 2026-05-07 20:56 | 40.43190 | -76.37696 | 22813 ft | 411 kts | 298° |
| 2026-05-07 20:56 | 40.44860 | -76.40748 | 23271 ft | 412 kts | 297° |
| 2026-05-07 20:56 | 40.46531 | -76.43805 | 23593 ft | 413 kts | 297° |
| 2026-05-07 20:56 | 40.48210 | -76.46881 | 23864 ft | 415 kts | 297° |
| 2026-05-07 20:57 | 40.49893 | -76.49966 | 24162 ft | 417 kts | 297° |
| 2026-05-07 20:57 | 40.51585 | -76.53068 | 24499 ft | 418 kts | 298° |
| 2026-05-07 20:57 | 40.53275 | -76.56172 | 24796 ft | 419 kts | 298° |
| 2026-05-07 20:57 | 40.54873 | -76.59356 | 25051 ft | 415 kts | 292° |
| 2026-05-07 20:58 | 40.56130 | -76.62750 | 25300 ft | 410 kts | 285° |
| 2026-05-07 20:58 | 40.57054 | -76.66289 | 25558 ft | 410 kts | 283° |
| 2026-05-07 20:58 | 40.57974 | -76.69842 | 25840 ft | 412 kts | 284° |
| 2026-05-07 20:58 | 40.58900 | -76.73367 | 26022 ft | 414 kts | 284° |
| 2026-05-07 20:59 | 40.59846 | -76.76945 | 26313 ft | 414 kts | 284° |
| 2026-05-07 20:59 | 40.60794 | -76.80509 | 26698 ft | 411 kts | 284° |
| 2026-05-07 20:59 | 40.61736 | -76.84052 | 27080 ft | 409 kts | 284° |
| 2026-05-07 20:59 | 40.62672 | -76.87576 | 27466 ft | 407 kts | 284° |
| 2026-05-07 21:00 | 40.63602 | -76.91083 | 27910 ft | 404 kts | 284° |
| 2026-05-07 21:00 | 40.64522 | -76.94560 | 28427 ft | 401 kts | 283° |
| 2026-05-07 21:00 | 40.65438 | -76.98027 | 28826 ft | 400 kts | 283° |
| 2026-05-07 21:00 | 40.66349 | -77.01488 | 29214 ft | 400 kts | 283° |
| 2026-05-07 21:01 | 40.67258 | -77.04940 | 29628 ft | 398 kts | 283° |
| 2026-05-07 21:01 | 40.68160 | -77.08371 | 29995 ft | 396 kts | 283° |
| 2026-05-07 21:01 | 40.69059 | -77.11795 | 30262 ft | 395 kts | 283° |
| 2026-05-07 21:01 | 40.69954 | -77.15212 | 30532 ft | 394 kts | 283° |
| 2026-05-07 21:02 | 40.70846 | -77.18620 | 30826 ft | 392 kts | 283° |
| 2026-05-07 21:02 | 40.71733 | -77.22012 | 31130 ft | 391 kts | 283° |
| 2026-05-07 21:02 | 40.72614 | -77.25384 | 31553 ft | 386 kts | 283° |
| 2026-05-07 21:02 | 40.73480 | -77.28700 | 32022 ft | 381 kts | 283° |
| 2026-05-07 21:03 | 40.74338 | -77.31996 | 32284 ft | 380 kts | 283° |
| 2026-05-07 21:03 | 40.75195 | -77.35296 | 32487 ft | 380 kts | 283° |
| 2026-05-07 21:03 | 40.76050 | -77.38597 | 32710 ft | 380 kts | 283° |
| 2026-05-07 21:03 | 40.76903 | -77.41890 | 32982 ft | 378 kts | 283° |
| 2026-05-07 21:04 | 40.77753 | -77.45169 | 33275 ft | 377 kts | 283° |
| 2026-05-07 21:04 | 40.78597 | -77.48435 | 33545 ft | 376 kts | 283° |
| 2026-05-07 21:04 | 40.79438 | -77.51694 | 33738 ft | 376 kts | 283° |
| 2026-05-07 21:04 | 40.80279 | -77.54955 | 33947 ft | 375 kts | 283° |
| 2026-05-07 21:05 | 40.81119 | -77.58220 | 33997 ft | 377 kts | 283° |
| 2026-05-07 21:05 | 40.82805 | -77.64783 | 34021 ft | 376 kts | 283° |
| 2026-05-07 21:06 | 40.84473 | -77.71286 | 34018 ft | 373 kts | 283° |
| 2026-05-07 21:06 | 40.86126 | -77.77750 | 34022 ft | 370 kts | 283° |
| 2026-05-07 21:07 | 40.87765 | -77.84184 | 34009 ft | 369 kts | 283° |
| 2026-05-07 21:07 | 40.89399 | -77.90609 | 34016 ft | 369 kts | 283° |
| 2026-05-07 21:08 | 40.90753 | -77.95950 | 34013 ft | 369 kts | 283° |
| 2026-05-07 21:08 | 40.92041 | -78.02478 | 34015 ft | 365 kts | 275° |
| 2026-05-07 21:09 | 40.92849 | -78.09118 | 34015 ft | 367 kts | 275° |
| 2026-05-07 21:09 | 40.93660 | -78.15717 | 34026 ft | 369 kts | 276° |
| 2026-05-07 21:10 | 40.94490 | -78.22419 | 34016 ft | 369 kts | 276° |
| 2026-05-07 21:10 | 40.95321 | -78.29128 | 34022 ft | 370 kts | 276° |
| 2026-05-07 21:11 | 40.96149 | -78.35842 | 34035 ft | 370 kts | 275° |
| 2026-05-07 21:11 | 40.97374 | -78.45879 | 33889 ft | 368 kts | 275° |
| 2026-05-07 21:12 | 40.98176 | -78.52557 | 33879 ft | 368 kts | 275° |
| 2026-05-07 21:12 | 40.98974 | -78.59257 | 33890 ft | 369 kts | 275° |
| 2026-05-07 21:13 | 40.99771 | -78.65964 | 33889 ft | 370 kts | 275° |
| 2026-05-07 21:13 | 41.00567 | -78.72704 | 33894 ft | 371 kts | 275° |
| 2026-05-07 21:14 | 41.01361 | -78.79451 | 33878 ft | 371 kts | 275° |
| 2026-05-07 21:14 | 41.02152 | -78.86200 | 33878 ft | 370 kts | 275° |
| 2026-05-07 21:15 | 41.02936 | -78.92938 | 33884 ft | 371 kts | 275° |
| 2026-05-07 21:15 | 41.03717 | -78.99684 | 33876 ft | 370 kts | 275° |
| 2026-05-07 21:16 | 41.04493 | -79.06428 | 33899 ft | 370 kts | 275° |
| 2026-05-07 21:16 | 41.05265 | -79.13160 | 33894 ft | 369 kts | 275° |
| 2026-05-07 21:17 | 41.06032 | -79.19887 | 33901 ft | 369 kts | 275° |
| 2026-05-07 21:17 | 41.06793 | -79.26600 | 33908 ft | 368 kts | 275° |
| 2026-05-07 21:18 | 41.07549 | -79.33301 | 33912 ft | 368 kts | 275° |
| 2026-05-07 21:18 | 41.08295 | -79.39955 | 33908 ft | 367 kts | 275° |
| 2026-05-07 21:19 | 41.09042 | -79.46648 | 33931 ft | 367 kts | 275° |
| 2026-05-07 21:19 | 41.09784 | -79.53336 | 33923 ft | 366 kts | 275° |
| 2026-05-07 21:20 | 41.10521 | -79.60012 | 33916 ft | 366 kts | 275° |
| 2026-05-07 21:20 | 41.11253 | -79.66680 | 33914 ft | 366 kts | 275° |
| 2026-05-07 21:21 | 41.11981 | -79.73350 | 33931 ft | 365 kts | 275° |
| 2026-05-07 21:21 | 41.12704 | -79.80010 | 33962 ft | 365 kts | 275° |
| 2026-05-07 21:22 | 41.13422 | -79.86665 | 33935 ft | 364 kts | 275° |
| 2026-05-07 21:22 | 41.14136 | -79.93310 | 33927 ft | 364 kts | 275° |
| 2026-05-07 21:23 | 41.14845 | -79.99947 | 33942 ft | 363 kts | 275° |
| 2026-05-07 21:23 | 41.15548 | -80.06569 | 33947 ft | 363 kts | 275° |
| 2026-05-07 21:24 | 41.16248 | -80.13194 | 33945 ft | 362 kts | 275° |
| 2026-05-07 21:24 | 41.16942 | -80.19814 | 33962 ft | 362 kts | 275° |
| 2026-05-07 21:25 | 41.17632 | -80.26428 | 33947 ft | 361 kts | 275° |
| 2026-05-07 21:25 | 41.18317 | -80.33028 | 33941 ft | 360 kts | 275° |
| 2026-05-07 21:26 | 41.18997 | -80.39614 | 33950 ft | 360 kts | 275° |
| 2026-05-07 21:26 | 41.19674 | -80.46200 | 33946 ft | 360 kts | 275° |
| 2026-05-07 21:27 | 41.20350 | -80.52794 | 33944 ft | 360 kts | 275° |
| 2026-05-07 21:27 | 41.21022 | -80.59378 | 33963 ft | 360 kts | 275° |
| 2026-05-07 21:28 | 41.21690 | -80.65958 | 33934 ft | 359 kts | 275° |
| 2026-05-07 21:28 | 41.22353 | -80.72534 | 33924 ft | 359 kts | 275° |
| 2026-05-07 21:29 | 41.23011 | -80.79106 | 33919 ft | 359 kts | 274° |
| 2026-05-07 21:29 | 41.23662 | -80.85630 | 33928 ft | 359 kts | 274° |
| 2026-05-07 21:30 | 41.24313 | -80.92203 | 33939 ft | 359 kts | 275° |
| 2026-05-07 21:30 | 41.24960 | -80.98779 | 33958 ft | 359 kts | 275° |
| 2026-05-07 21:31 | 41.25604 | -81.05356 | 33952 ft | 359 kts | 275° |
| 2026-05-07 21:31 | 41.26245 | -81.11939 | 33956 ft | 359 kts | 274° |
| 2026-05-07 21:32 | 41.26882 | -81.18526 | 33954 ft | 359 kts | 274° |
| 2026-05-07 21:32 | 41.27515 | -81.25119 | 33952 ft | 360 kts | 274° |
| 2026-05-07 21:33 | 41.28146 | -81.31721 | 33958 ft | 360 kts | 275° |
| 2026-05-07 21:33 | 41.28774 | -81.38329 | 33965 ft | 360 kts | 275° |
| 2026-05-07 21:34 | 41.29396 | -81.44927 | 33955 ft | 360 kts | 275° |
| 2026-05-07 21:34 | 41.30004 | -81.51399 | 33963 ft | 359 kts | 274° |
| 2026-05-07 21:35 | 41.30619 | -81.57998 | 33970 ft | 359 kts | 274° |
| 2026-05-07 21:35 | 41.31222 | -81.64587 | 33957 ft | 359 kts | 274° |
| 2026-05-07 21:36 | 41.31818 | -81.71171 | 33955 ft | 358 kts | 274° |
| 2026-05-07 21:36 | 41.32410 | -81.77749 | 33953 ft | 358 kts | 274° |
| 2026-05-07 21:37 | 41.32999 | -81.84320 | 33948 ft | 358 kts | 274° |
| 2026-05-07 21:37 | 41.33580 | -81.90851 | 33952 ft | 358 kts | 274° |
| 2026-05-07 21:38 | 41.34160 | -81.97417 | 33958 ft | 357 kts | 274° |
| 2026-05-07 21:38 | 41.34737 | -82.03983 | 33969 ft | 357 kts | 274° |
| 2026-05-07 21:39 | 41.35311 | -82.10552 | 33973 ft | 357 kts | 274° |
| 2026-05-07 21:39 | 41.35876 | -82.17121 | 33977 ft | 357 kts | 274° |
| 2026-05-07 21:40 | 41.36295 | -82.23707 | 33970 ft | 357 kts | 272° |
| 2026-05-07 21:40 | 41.36661 | -82.30292 | 33975 ft | 357 kts | 272° |
| 2026-05-07 21:41 | 41.37032 | -82.36886 | 33970 ft | 357 kts | 272° |
| 2026-05-07 21:41 | 41.37408 | -82.43481 | 33969 ft | 358 kts | 272° |
| 2026-05-07 21:42 | 41.37785 | -82.50089 | 33981 ft | 358 kts | 272° |
| 2026-05-07 21:42 | 41.38160 | -82.56699 | 33976 ft | 358 kts | 272° |
| 2026-05-07 21:43 | 41.38532 | -82.63320 | 33984 ft | 359 kts | 272° |
| 2026-05-07 21:43 | 41.38899 | -82.69922 | 33970 ft | 359 kts | 272° |
| 2026-05-07 21:44 | 41.39264 | -82.76551 | 33969 ft | 359 kts | 272° |
| 2026-05-07 21:44 | 41.39626 | -82.83183 | 33980 ft | 360 kts | 272° |
| 2026-05-07 21:45 | 41.39982 | -82.89796 | 33980 ft | 361 kts | 272° |
| 2026-05-07 21:45 | 41.40337 | -82.96457 | 33978 ft | 361 kts | 272° |
| 2026-05-07 21:46 | 41.40689 | -83.03128 | 33984 ft | 361 kts | 272° |
| 2026-05-07 21:46 | 41.41037 | -83.09798 | 33984 ft | 361 kts | 272° |
| 2026-05-07 21:47 | 41.41382 | -83.16473 | 33991 ft | 361 kts | 272° |
| 2026-05-07 21:47 | 41.41723 | -83.23158 | 33992 ft | 362 kts | 272° |
| 2026-05-07 21:48 | 41.42061 | -83.29867 | 33989 ft | 363 kts | 271° |
| 2026-05-07 21:48 | 41.42395 | -83.36580 | 33989 ft | 364 kts | 271° |
| 2026-05-07 21:49 | 41.42727 | -83.43311 | 33989 ft | 364 kts | 271° |
| 2026-05-07 21:49 | 41.43054 | -83.50041 | 33986 ft | 364 kts | 271° |
| 2026-05-07 21:50 | 41.43378 | -83.56778 | 33973 ft | 365 kts | 272° |
| 2026-05-07 21:50 | 41.43699 | -83.63549 | 33990 ft | 367 kts | 271° |
| 2026-05-07 21:51 | 41.44018 | -83.70362 | 33985 ft | 369 kts | 271° |
| 2026-05-07 21:51 | 41.44335 | -83.77198 | 33984 ft | 370 kts | 271° |
| 2026-05-07 21:52 | 41.44648 | -83.84051 | 33982 ft | 371 kts | 271° |
| 2026-05-07 21:52 | 41.44957 | -83.90912 | 33984 ft | 371 kts | 271° |
| 2026-05-07 21:53 | 41.45263 | -83.97788 | 33984 ft | 372 kts | 272° |
| 2026-05-07 21:53 | 41.45566 | -84.04680 | 33990 ft | 373 kts | 272° |
| 2026-05-07 21:54 | 41.45865 | -84.11584 | 33988 ft | 373 kts | 272° |
| 2026-05-07 21:54 | 41.46160 | -84.18497 | 33989 ft | 373 kts | 272° |
| 2026-05-07 21:55 | 41.46449 | -84.25358 | 33992 ft | 373 kts | 272° |
| 2026-05-07 21:55 | 41.46735 | -84.32273 | 33987 ft | 374 kts | 272° |
| 2026-05-07 21:56 | 41.47019 | -84.39209 | 33982 ft | 375 kts | 272° |
| 2026-05-07 21:56 | 41.47299 | -84.46165 | 33974 ft | 376 kts | 272° |
| 2026-05-07 21:57 | 41.47576 | -84.53137 | 33976 ft | 376 kts | 272° |
| 2026-05-07 21:57 | 41.47802 | -84.58932 | 33979 ft | 377 kts | 272° |
| 2026-05-07 21:58 | 41.48071 | -84.65904 | 33980 ft | 377 kts | 272° |
| 2026-05-07 21:58 | 41.48336 | -84.72890 | 33988 ft | 378 kts | 272° |
| 2026-05-07 21:59 | 41.48598 | -84.79906 | 33981 ft | 379 kts | 272° |
| 2026-05-07 21:59 | 41.48856 | -84.86928 | 33981 ft | 380 kts | 272° |
| 2026-05-07 22:00 | 41.49111 | -84.93966 | 33973 ft | 380 kts | 272° |
| 2026-05-07 22:00 | 41.49360 | -85.01004 | 33972 ft | 380 kts | 272° |
| 2026-05-07 22:01 | 41.49605 | -85.08042 | 33971 ft | 380 kts | 272° |
| 2026-05-07 22:01 | 41.49847 | -85.15085 | 33967 ft | 380 kts | 272° |
| 2026-05-07 22:02 | 41.50084 | -85.22126 | 33972 ft | 380 kts | 272° |
| 2026-05-07 22:02 | 41.50317 | -85.29161 | 33975 ft | 380 kts | 272° |
| 2026-05-07 22:03 | 41.50545 | -85.36196 | 33981 ft | 379 kts | 272° |
| 2026-05-07 22:03 | 41.50769 | -85.43231 | 33975 ft | 379 kts | 273° |
| 2026-05-07 22:04 | 41.50988 | -85.50258 | 33976 ft | 379 kts | 273° |
| 2026-05-07 22:04 | 41.51204 | -85.57280 | 33970 ft | 379 kts | 273° |
| 2026-05-07 22:05 | 41.51415 | -85.64307 | 33964 ft | 379 kts | 273° |
| 2026-05-07 22:05 | 41.51621 | -85.71332 | 33961 ft | 379 kts | 273° |
| 2026-05-07 22:06 | 41.51823 | -85.78353 | 33969 ft | 379 kts | 273° |
| 2026-05-07 22:06 | 41.52021 | -85.85371 | 33965 ft | 379 kts | 273° |
| 2026-05-07 22:07 | 41.52215 | -85.92386 | 33963 ft | 380 kts | 273° |
| 2026-05-07 22:07 | 41.52406 | -85.99431 | 33961 ft | 380 kts | 272° |
| 2026-05-07 22:08 | 41.52579 | -86.06467 | 33957 ft | 379 kts | 272° |
| 2026-05-07 22:08 | 41.52706 | -86.13503 | 33965 ft | 379 kts | 272° |
| 2026-05-07 22:09 | 41.52824 | -86.20548 | 33956 ft | 379 kts | 272° |
| 2026-05-07 22:09 | 41.52941 | -86.27520 | 33959 ft | 378 kts | 272° |
| 2026-05-07 22:10 | 41.53057 | -86.34528 | 33965 ft | 377 kts | 272° |
| 2026-05-07 22:10 | 41.53169 | -86.41525 | 33960 ft | 377 kts | 272° |
| 2026-05-07 22:11 | 41.53277 | -86.48515 | 33961 ft | 376 kts | 272° |
| 2026-05-07 22:11 | 41.53381 | -86.55493 | 33956 ft | 376 kts | 272° |
| 2026-05-07 22:12 | 41.53479 | -86.62462 | 33946 ft | 375 kts | 273° |
| 2026-05-07 22:12 | 41.53575 | -86.69413 | 33954 ft | 374 kts | 273° |
| 2026-05-07 22:13 | 41.53665 | -86.76357 | 33954 ft | 374 kts | 273° |
| 2026-05-07 22:13 | 41.53752 | -86.83302 | 33953 ft | 374 kts | 272° |
| 2026-05-07 22:14 | 41.53834 | -86.90244 | 33959 ft | 374 kts | 272° |
| 2026-05-07 22:14 | 41.53912 | -86.97188 | 33953 ft | 374 kts | 273° |
| 2026-05-07 22:15 | 41.53986 | -87.04126 | 33963 ft | 374 kts | 273° |
| 2026-05-07 22:15 | 41.54055 | -87.11064 | 33965 ft | 374 kts | 273° |
| 2026-05-07 22:16 | 41.54121 | -87.18011 | 33972 ft | 374 kts | 273° |
| 2026-05-07 22:16 | 41.54182 | -87.24958 | 33934 ft | 374 kts | 272° |
| 2026-05-07 22:17 | 41.54239 | -87.31904 | 33934 ft | 374 kts | 272° |
| 2026-05-07 22:17 | 41.54292 | -87.38840 | 33922 ft | 374 kts | 272° |
| 2026-05-07 22:18 | 41.54364 | -87.49251 | 33936 ft | 374 kts | 272° |
| 2026-05-07 22:19 | 41.54406 | -87.56145 | 33940 ft | 374 kts | 272° |
| 2026-05-07 22:19 | 41.54444 | -87.63085 | 33948 ft | 374 kts | 272° |
| 2026-05-07 22:20 | 41.54478 | -87.70024 | 33941 ft | 374 kts | 272° |
| 2026-05-07 22:20 | 41.54508 | -87.76950 | 33935 ft | 372 kts | 272° |
| 2026-05-07 22:21 | 41.54534 | -87.83852 | 33928 ft | 371 kts | 272° |
| 2026-05-07 22:21 | 41.54555 | -87.90739 | 33922 ft | 371 kts | 272° |
| 2026-05-07 22:22 | 41.54573 | -87.97615 | 33919 ft | 370 kts | 272° |
| 2026-05-07 22:22 | 41.54586 | -88.04494 | 33904 ft | 370 kts | 272° |
| 2026-05-07 22:23 | 41.54596 | -88.11345 | 33891 ft | 368 kts | 272° |
| 2026-05-07 22:23 | 41.54601 | -88.18166 | 33911 ft | 367 kts | 272° |
| 2026-05-07 22:24 | 41.54603 | -88.24977 | 33916 ft | 367 kts | 272° |
| 2026-05-07 22:24 | 41.54600 | -88.31781 | 33920 ft | 367 kts | 272° |
| 2026-05-07 22:25 | 41.54628 | -88.38588 | 33922 ft | 367 kts | 272° |
| 2026-05-07 22:25 | 41.54671 | -88.45394 | 33931 ft | 367 kts | 272° |
| 2026-05-07 22:26 | 41.54709 | -88.52200 | 33918 ft | 367 kts | 272° |
| 2026-05-07 22:26 | 41.54739 | -88.59018 | 33930 ft | 368 kts | 272° |
| 2026-05-07 22:27 | 41.54765 | -88.65849 | 33925 ft | 368 kts | 272° |
| 2026-05-07 22:27 | 41.54787 | -88.72644 | 33928 ft | 369 kts | 272° |
| 2026-05-07 22:28 | 41.54804 | -88.79495 | 33927 ft | 369 kts | 272° |
| 2026-05-07 22:28 | 41.54817 | -88.86389 | 33931 ft | 369 kts | 272° |
| 2026-05-07 22:29 | 41.54826 | -88.93209 | 33934 ft | 370 kts | 272° |
| 2026-05-07 22:29 | 41.54832 | -89.00085 | 33929 ft | 371 kts | 272° |
| 2026-05-07 22:30 | 41.54833 | -89.06968 | 33924 ft | 371 kts | 272° |
| 2026-05-07 22:30 | 41.54830 | -89.13851 | 33927 ft | 371 kts | 272° |
| 2026-05-07 22:31 | 41.54823 | -89.20743 | 33930 ft | 371 kts | 272° |
| 2026-05-07 22:31 | 41.54813 | -89.27628 | 33922 ft | 371 kts | 272° |
| 2026-05-07 22:32 | 41.54798 | -89.34525 | 33922 ft | 372 kts | 271° |
| 2026-05-07 22:32 | 41.54775 | -89.41428 | 33913 ft | 372 kts | 271° |
| 2026-05-07 22:33 | 41.54747 | -89.48340 | 33909 ft | 373 kts | 271° |
| 2026-05-07 22:33 | 41.54716 | -89.55261 | 33910 ft | 373 kts | 271° |
| 2026-05-07 22:34 | 41.54681 | -89.62180 | 33908 ft | 373 kts | 271° |
| 2026-05-07 22:34 | 41.54654 | -89.66959 | 33903 ft | 373 kts | 271° |